Time;durP1;ratioP1;P1;durP2;ratioP2;P2;SDS_P1;SDS_P2;PMS_P1;PMS_P2;Temp;Humidity;BMP_temperature;BMP_pressure;BME280_temperature;BME280_humidity;BME280_pressure;Samples;Min_cycle;Max_cycle;Signal;HPM_P1;HPM_P2
2023/12/12 00:00:00;;;;;;;1.98;1.40;;;;;;;12.32;77.57;100115.03;5082080;27;100128;-78
2023/12/12 00:02:27;;;;;;;1.67;1.45;;;;;;;12.40;77.63;100125.25;5078990;27;98931;-77
2023/12/12 00:04:54;;;;;;;3.13;1.40;;;;;;;12.58;77.00;100129.56;5083847;27;97874;-77
2023/12/12 00:07:20;;;;;;;2.45;1.70;;;;;;;12.21;77.12;100135.91;5079503;27;96945;-76
2023/12/12 00:09:46;;;;;;;3.40;2.33;;;;;;;12.18;77.82;100137.88;5081693;27;98504;-76
2023/12/12 00:12:13;;;;;;;6.60;3.15;;;;;;;12.37;76.82;100133.34;5079505;27;99268;-77
2023/12/12 00:14:39;;;;;;;2.90;1.73;;;;;;;12.36;76.65;100137.78;5076823;27;99035;-76
2023/12/12 00:17:05;;;;;;;2.45;1.90;;;;;;;12.53;75.98;100136.03;5081240;27;97280;-76
2023/12/12 00:19:33;;;;;;;2.67;1.70;;;;;;;12.34;76.51;100138.78;5082541;27;97919;-76
2023/12/12 00:22:00;;;;;;;2.28;2.00;;;;;;;12.45;76.02;100143.53;5081993;27;99059;-77
2023/12/12 00:24:26;;;;;;;1.92;1.75;;;;;;;12.50;75.83;100142.34;5082766;27;98672;-76
2023/12/12 00:26:53;;;;;;;3.13;1.92;;;;;;;12.46;75.57;100139.94;5078207;27;96959;-76
2023/12/12 00:29:19;;;;;;;2.25;1.95;;;;;;;12.40;76.51;100148.22;5082443;27;97267;-76
2023/12/12 00:31:45;;;;;;;2.72;2.00;;;;;;;12.33;76.44;100145.91;5080817;27;97815;-76
2023/12/12 00:34:12;;;;;;;2.30;1.98;;;;;;;12.36;76.39;100156.31;5078948;27;99210;-75
2023/12/12 00:36:40;;;;;;;3.47;2.15;;;;;;;12.47;76.59;100158.41;5085267;27;97652;-75
2023/12/12 00:39:07;;;;;;;2.20;2.00;;;;;;;12.61;75.63;100152.38;5084851;27;98809;-77
2023/12/12 00:41:35;;;;;;;3.10;2.45;;;;;;;12.63;75.14;100161.09;5087872;27;101399;-77
2023/12/12 00:44:01;;;;;;;2.88;1.80;;;;;;;12.61;75.22;100168.28;5079431;27;99005;-77
2023/12/12 00:46:28;;;;;;;2.00;1.80;;;;;;;12.74;74.55;100170.19;5086666;27;99123;-76
2023/12/12 00:48:54;;;;;;;2.35;2.15;;;;;;;12.65;74.84;100173.34;5082729;27;96900;-75
2023/12/12 00:51:20;;;;;;;5.50;2.13;;;;;;;12.57;74.99;100180.00;5081138;27;97767;-75
2023/12/12 00:53:49;;;;;;;2.40;2.20;;;;;;;12.51;75.16;100194.41;5082099;27;99147;-77
2023/12/12 00:56:16;;;;;;;2.60;2.40;;;;;;;12.65;75.60;100199.00;5085447;27;97077;-76
2023/12/12 00:58:42;;;;;;;3.65;2.63;;;;;;;12.58;75.50;100200.25;5081185;27;97403;-76
2023/12/12 01:01:09;;;;;;;2.63;2.25;;;;;;;12.67;74.76;100207.72;5083882;27;99345;-78
2023/12/12 01:03:35;;;;;;;2.90;2.58;;;;;;;12.44;75.33;100210.72;5084435;27;102466;-76
2023/12/12 01:06:02;;;;;;;4.97;2.85;;;;;;;12.50;75.32;100207.75;5073207;27;97363;-76
2023/12/12 01:08:28;;;;;;;4.57;3.40;;;;;;;12.62;75.39;100217.69;5074320;27;97025;-76
2023/12/12 01:10:56;;;;;;;2.65;2.45;;;;;;;12.77;74.54;100211.59;5084351;27;97848;-74
2023/12/12 01:13:22;;;;;;;3.97;2.50;;;;;;;12.32;75.77;100214.84;5072621;27;98975;-75
2023/12/12 01:15:49;;;;;;;2.85;2.45;;;;;;;12.42;75.64;100220.53;5077688;27;96901;-77
2023/12/12 01:18:15;;;;;;;3.50;2.58;;;;;;;12.17;76.50;100221.78;5078063;27;97153;-76
2023/12/12 01:20:41;;;;;;;3.72;2.95;;;;;;;12.28;77.03;100219.44;5080840;27;100410;-77
2023/12/12 01:23:08;;;;;;;3.08;2.22;;;;;;;12.28;76.83;100224.72;5074897;27;102782;-77
2023/12/12 01:25:34;;;;;;;3.40;2.92;;;;;;;12.29;76.58;100229.09;5085627;27;96710;-77
2023/12/12 01:28:02;;;;;;;4.30;2.38;;;;;;;12.41;76.36;100229.41;5084545;27;97060;-77
2023/12/12 01:30:29;;;;;;;3.10;2.55;;;;;;;12.30;76.31;100232.59;5079610;27;98965;-77
2023/12/12 01:32:55;;;;;;;4.40;2.67;;;;;;;12.21;77.23;100249.81;5082675;27;99023;-77
2023/12/12 01:35:22;;;;;;;3.03;2.50;;;;;;;12.33;76.95;100243.94;5085921;27;98851;-77
2023/12/12 01:37:48;;;;;;;2.72;2.00;;;;;;;12.33;76.16;100246.56;5071545;27;98227;-77
2023/12/12 01:40:14;;;;;;;4.13;2.35;;;;;;;12.41;76.10;100253.25;5074615;27;98918;-77
2023/12/12 01:42:42;;;;;;;2.45;2.25;;;;;;;12.63;75.45;100249.44;5082776;27;98763;-77
2023/12/12 01:45:10;;;;;;;2.55;2.35;;;;;;;12.74;74.48;100255.03;5077028;27;98504;-77
2023/12/12 01:47:37;;;;;;;6.20;2.60;;;;;;;12.53;74.54;100257.94;5082512;27;96883;-78
2023/12/12 01:50:04;;;;;;;3.65;2.25;;;;;;;12.60;74.38;100262.00;5083017;27;98909;-77
2023/12/12 01:52:30;;;;;;;2.92;2.35;;;;;;;12.86;73.63;100265.97;5081727;27;98134;-78
2023/12/12 01:54:58;;;;;;;2.72;2.33;;;;;;;12.47;74.53;100260.91;5078342;27;96997;-78
2023/12/12 01:57:25;;;;;;;4.47;2.45;;;;;;;12.50;73.91;100258.94;5084506;27;101102;-78
2023/12/12 01:59:51;;;;;;;4.18;2.20;;;;;;;12.15;74.48;100271.31;5078625;27;98213;-79
2023/12/12 02:02:20;;;;;;;3.05;2.30;;;;;;;12.53;73.62;100256.16;5085198;27;101702;-78
2023/12/12 02:04:49;;;;;;;3.72;2.67;;;;;;;12.69;73.67;100264.16;5081493;27;96950;-78
2023/12/12 02:07:16;;;;;;;3.22;2.53;;;;;;;12.61;73.26;100259.25;5083947;27;97292;-78
2023/12/12 02:09:43;;;;;;;2.63;2.42;;;;;;;12.74;72.27;100249.72;5082910;27;97694;-82
2023/12/12 02:12:09;;;;;;;3.15;2.47;;;;;;;12.75;72.29;100250.59;5083580;27;98422;-81
2023/12/12 02:14:37;;;;;;;5.53;2.83;;;;;;;12.69;72.27;100253.56;5084029;27;97461;-81
2023/12/12 02:17:04;;;;;;;3.30;2.50;;;;;;;12.54;72.86;100255.19;5080716;27;97274;-81
2023/12/12 02:19:32;;;;;;;4.68;2.47;;;;;;;12.69;72.45;100253.56;5085863;27;97980;-80
2023/12/12 02:22:00;;;;;;;3.08;2.45;;;;;;;12.26;73.68;100253.13;5081408;27;98592;-80
2023/12/12 02:24:26;;;;;;;4.53;2.30;;;;;;;12.45;73.56;100263.63;5083089;27;96867;-79
2023/12/12 02:26:53;;;;;;;2.40;2.20;;;;;;;12.53;72.77;100261.47;5081061;27;97546;-78
2023/12/12 02:29:19;;;;;;;2.72;2.53;;;;;;;12.72;72.03;100258.72;5084676;27;97390;-79
2023/12/12 02:31:45;;;;;;;3.90;2.90;;;;;;;12.51;72.89;100270.41;5081363;27;102099;-79
2023/12/12 02:34:12;;;;;;;3.15;2.70;;;;;;;12.51;72.94;100268.63;5089607;27;98915;-78
2023/12/12 02:36:38;;;;;;;2.88;2.67;;;;;;;12.22;74.53;100272.72;5081491;27;96772;-78
2023/12/12 02:39:06;;;;;;;3.88;2.80;;;;;;;12.16;74.64;100267.72;5084251;27;99636;-78
2023/12/12 02:41:32;;;;;;;3.35;2.63;;;;;;;12.34;74.23;100255.34;5082499;27;98802;-78
2023/12/12 02:43:59;;;;;;;5.47;3.55;;;;;;;12.28;74.57;100259.16;5083447;27;96752;-79
2023/12/12 02:46:25;;;;;;;5.53;3.42;;;;;;;12.32;75.46;100271.34;5081478;27;97844;-79
2023/12/12 02:48:51;;;;;;;6.40;3.42;;;;;;;12.25;75.28;100271.72;5075421;27;99329;-77
2023/12/12 02:51:18;;;;;;;4.43;3.15;;;;;;;12.09;76.41;100265.47;5083306;27;97592;-77
2023/12/12 02:53:44;;;;;;;5.25;3.85;;;;;;;11.96;77.35;100267.84;5082074;27;97520;-78
2023/12/12 02:56:12;;;;;;;6.57;3.85;;;;;;;11.93;77.80;100270.66;5082203;27;96794;-76
2023/12/12 02:58:38;;;;;;;5.47;3.90;;;;;;;11.98;78.19;100269.50;5082291;27;98220;-77
2023/12/12 03:01:04;;;;;;;8.85;4.43;;;;;;;12.21;77.59;100278.94;5085705;27;99467;-78
2023/12/12 03:03:31;;;;;;;6.63;4.68;;;;;;;12.45;76.79;100276.03;5071018;27;97208;-78
2023/12/12 03:05:57;;;;;;;7.93;5.30;;;;;;;11.98;78.66;100276.59;5086978;27;96946;-76
2023/12/12 03:08:23;;;;;;;7.72;5.00;;;;;;;12.14;78.12;100280.19;5078139;27;97932;-77
2023/12/12 03:10:50;;;;;;;5.22;4.72;;;;;;;12.15;78.81;100276.59;5080058;27;99068;-77
2023/12/12 03:13:17;;;;;;;7.28;5.10;;;;;;;12.16;78.77;100286.28;5083915;27;96768;-77
2023/12/12 03:15:44;;;;;;;6.10;4.85;;;;;;;12.13;79.12;100286.44;5083427;27;98349;-76
2023/12/12 03:18:10;;;;;;;6.82;4.75;;;;;;;12.07;79.79;100276.16;5079517;27;97616;-77
2023/12/12 03:20:37;;;;;;;9.45;5.35;;;;;;;12.11;79.04;100277.69;5086464;27;101870;-78
2023/12/12 03:23:03;;;;;;;6.35;5.38;;;;;;;12.26;78.87;100279.59;5082805;27;97564;-85
2023/12/12 03:25:29;;;;;;;10.32;6.25;;;;;;;12.24;78.89;100276.16;5076467;27;97244;-76
2023/12/12 03:27:56;;;;;;;9.10;6.20;;;;;;;12.28;79.17;100280.38;5079624;27;98904;-77
2023/12/12 03:30:23;;;;;;;6.90;5.55;;;;;;;12.23;79.25;100279.75;5075241;27;98748;-71
2023/12/12 03:32:50;;;;;;;8.63;5.75;;;;;;;12.15;80.01;100281.03;5079352;27;101306;-71
2023/12/12 03:35:16;;;;;;;6.85;5.35;;;;;;;12.08;80.07;100283.13;5081432;27;97858;-71
2023/12/12 03:37:44;;;;;;;8.95;5.93;;;;;;;12.15;80.13;100296.94;5082502;27;99620;-77
2023/12/12 03:40:11;;;;;;;6.93;5.78;;;;;;;12.32;79.60;100289.91;5083732;27;98603;-75
2023/12/12 03:42:37;;;;;;;8.85;5.88;;;;;;;12.37;79.14;100287.00;5076936;27;96850;-75
2023/12/12 03:45:04;;;;;;;6.75;5.70;;;;;;;12.17;79.46;100295.09;5084359;27;96922;-75
2023/12/12 03:47:32;;;;;;;9.60;6.60;;;;;;;12.14;79.94;100292.59;5085638;27;101915;-75
2023/12/12 03:49:58;;;;;;;8.60;5.65;;;;;;;12.20;79.60;100295.81;5080884;27;98732;-77
2023/12/12 03:52:25;;;;;;;8.02;6.28;;;;;;;12.26;79.35;100287.56;5079413;27;98509;-77
2023/12/12 03:54:51;;;;;;;6.55;5.82;;;;;;;12.30;80.04;100291.75;5075170;27;96753;-76
2023/12/12 03:57:17;;;;;;;6.43;5.40;;;;;;;12.12;80.05;100297.97;5083758;27;98951;-76
2023/12/12 03:59:44;;;;;;;7.82;5.22;;;;;;;12.22;80.38;100291.25;5077986;27;97639;-76
2023/12/12 04:02:10;;;;;;;7.18;5.60;;;;;;;12.20;80.36;100293.16;5077427;27;97749;-76
2023/12/12 04:04:38;;;;;;;6.82;5.00;;;;;;;12.25;80.16;100293.78;5080336;27;98710;-76
2023/12/12 04:07:05;;;;;;;6.68;5.20;;;;;;;12.24;80.02;100297.34;5077525;27;97855;-76
2023/12/12 04:09:31;;;;;;;5.95;4.35;;;;;;;12.35;79.82;100294.16;5075699;27;99009;-76
2023/12/12 04:11:57;;;;;;;6.07;3.55;;;;;;;12.31;79.84;100300.56;5081236;27;96834;-76
2023/12/12 04:14:25;;;;;;;3.58;2.63;;;;;;;12.41;79.05;100300.94;5079285;27;96844;-76
2023/12/12 04:16:52;;;;;;;3.45;2.17;;;;;;;12.43;79.10;100299.09;5082840;27;99657;-75
2023/12/12 04:19:18;;;;;;;2.20;1.77;;;;;;;12.52;79.08;100290.69;5077762;27;99118;-76
2023/12/12 04:21:46;;;;;;;1.88;1.20;;;;;;;12.20;79.39;100290.50;5077209;27;98758;-76
2023/12/12 04:24:12;;;;;;;1.65;1.00;;;;;;;12.27;80.09;100294.53;5079654;27;98864;-76
2023/12/12 04:26:38;;;;;;;1.40;0.90;;;;;;;11.92;81.17;100304.22;5078940;27;99572;-76
2023/12/12 04:29:05;;;;;;;1.77;1.10;;;;;;;12.10;81.13;100304.25;5076167;27;98927;-76
2023/12/12 04:31:31;;;;;;;1.95;1.10;;;;;;;12.07;81.11;100304.41;5082699;27;98043;-77
2023/12/12 04:33:58;;;;;;;2.80;1.40;;;;;;;12.03;80.97;100302.84;5079609;27;97273;-78
2023/12/12 04:36:24;;;;;;;2.58;1.40;;;;;;;12.00;81.21;100298.56;5081706;27;99059;-78
2023/12/12 04:38:52;;;;;;;2.97;1.27;;;;;;;12.06;80.86;100300.91;5079674;27;98882;-77
2023/12/12 04:41:18;;;;;;;8.68;2.03;;;;;;;12.08;80.55;100306.97;5071738;27;96805;-76
2023/12/12 04:43:45;;;;;;;5.63;2.20;;;;;;;11.82;81.51;100310.00;5080435;27;97112;-75
2023/12/12 04:46:18;;;;;;;4.93;1.67;;;;;;;11.98;81.17;100306.56;5077459;27;99045;-76
2023/12/12 04:48:45;;;;;;;5.63;2.20;;;;;;;11.91;80.96;100309.59;5080550;27;98738;-76
2023/12/12 04:51:11;;;;;;;4.38;2.10;;;;;;;11.96;80.99;100313.72;5081487;27;98479;-75
2023/12/12 04:53:37;;;;;;;4.57;2.00;;;;;;;11.60;82.63;100310.16;5082458;27;98066;-75
2023/12/12 04:56:07;;;;;;;6.13;1.88;;;;;;;11.90;80.96;100315.81;5082027;27;98843;-75
2023/12/12 04:58:33;;;;;;;6.35;2.25;;;;;;;11.76;81.46;100312.94;5081832;27;102990;-75
2023/12/12 05:01:00;;;;;;;7.50;2.38;;;;;;;11.87;81.29;100316.84;5082454;27;97207;-75
2023/12/12 05:03:26;;;;;;;7.53;2.20;;;;;;;11.72;82.07;100308.72;5086909;27;97239;-75
2023/12/12 05:05:52;;;;;;;8.07;2.25;;;;;;;11.83;81.32;100317.88;5081004;27;99545;-76
2023/12/12 05:08:19;;;;;;;6.50;2.05;;;;;;;11.90;80.89;100314.00;5074747;27;98831;-76
2023/12/12 05:10:45;;;;;;;6.43;2.08;;;;;;;11.82;81.58;100317.94;5075175;27;96872;-75
2023/12/12 05:13:13;;;;;;;4.53;2.45;;;;;;;11.65;81.99;100313.44;5086218;27;97105;-76
2023/12/12 05:15:39;;;;;;;11.40;2.60;;;;;;;11.76;82.29;100313.81;5078356;27;101189;-76
2023/12/12 05:18:06;;;;;;;7.03;2.85;;;;;;;11.44;82.38;100315.28;5082893;27;98810;-76
2023/12/12 05:20:34;;;;;;;5.85;2.33;;;;;;;11.35;83.12;100315.72;5081134;27;96755;-78
2023/12/12 05:23:00;;;;;;;5.45;2.17;;;;;;;11.48;83.31;100318.66;5076978;27;96955;-77
2023/12/12 05:25:27;;;;;;;4.10;1.75;;;;;;;11.38;83.34;100322.63;5079182;27;97923;-77
2023/12/12 05:27:53;;;;;;;5.20;1.80;;;;;;;11.51;83.35;100327.28;5084192;27;99272;-77
2023/12/12 05:30:21;;;;;;;6.97;2.20;;;;;;;11.57;82.77;100326.16;5083118;27;96902;-78
2023/12/12 05:32:47;;;;;;;7.13;2.30;;;;;;;11.48;83.86;100330.09;5081731;27;96997;-77
2023/12/12 05:35:14;;;;;;;5.07;2.10;;;;;;;11.40;83.53;100334.88;5082818;27;99250;-79
2023/12/12 05:37:40;;;;;;;5.80;1.90;;;;;;;11.43;83.23;100325.91;5079660;27;98885;-79
2023/12/12 05:40:08;;;;;;;7.43;2.58;;;;;;;11.26;83.55;100334.63;5079122;27;96864;-77
2023/12/12 05:42:34;;;;;;;11.88;2.22;;;;;;;11.24;84.40;100336.47;5081493;27;97177;-76
2023/12/12 05:45:01;;;;;;;7.75;2.05;;;;;;;11.55;82.78;100339.44;5080045;27;99618;-77
2023/12/12 05:47:29;;;;;;;7.30;2.17;;;;;;;11.91;81.06;100336.06;5079801;27;98789;-78
2023/12/12 05:49:56;;;;;;;8.13;2.85;;;;;;;12.10;80.03;100352.78;5082966;27;97674;-80
2023/12/12 05:52:22;;;;;;;7.28;1.98;;;;;;;11.93;79.71;100350.09;5083244;27;98732;-80
2023/12/12 05:54:49;;;;;;;6.65;2.05;;;;;;;12.04;79.25;100354.88;5082526;27;98984;-78
2023/12/12 05:57:15;;;;;;;6.55;2.17;;;;;;;11.52;80.66;100344.91;5088284;27;98794;-78
2023/12/12 05:59:41;;;;;;;4.97;2.53;;;;;;;11.61;80.63;100348.06;5087218;27;96765;-77
2023/12/12 06:02:08;;;;;;;4.88;2.20;;;;;;;11.70;80.33;100353.78;5089464;27;100473;-76
2023/12/12 06:04:38;;;;;;;6.07;2.30;;;;;;;11.78;79.99;100356.09;5079919;27;99112;-75
2023/12/12 06:07:05;;;;;;;5.03;2.50;;;;;;;11.80;79.79;100360.41;5083964;27;98714;-77
2023/12/12 06:09:31;;;;;;;5.82;2.25;;;;;;;11.70;80.09;100363.50;5086286;27;96918;-78
2023/12/12 06:11:58;;;;;;;9.95;3.03;;;;;;;11.65;80.77;100368.16;5078693;27;96942;-78
2023/12/12 06:14:25;;;;;;;6.15;1.90;;;;;;;11.55;80.07;100375.66;5087494;27;99381;-78
2023/12/12 06:16:51;;;;;;;8.38;2.88;;;;;;;11.73;80.14;100371.31;5076585;27;100605;-79
2023/12/12 06:19:18;;;;;;;6.57;2.28;;;;;;;11.84;79.30;100375.19;5084453;27;96948;-78
2023/12/12 06:21:51;;;;;;;7.93;2.50;;;;;;;11.71;79.91;100370.50;5084061;27;100169;-78
2023/12/12 06:24:17;;;;;;;7.50;2.63;;;;;;;11.47;80.34;100368.06;5088022;27;99200;-77
2023/12/12 06:26:44;;;;;;;4.95;2.60;;;;;;;11.62;80.25;100377.06;5083501;27;99108;-78
2023/12/12 06:29:11;;;;;;;8.63;2.60;;;;;;;11.47;80.48;100376.00;5087586;27;97471;-78
2023/12/12 06:31:38;;;;;;;4.60;2.50;;;;;;;11.45;80.71;100385.78;5083959;27;97046;-78
2023/12/12 06:34:05;;;;;;;17.80;2.72;;;;;;;11.31;81.02;100382.88;5083827;27;98262;-76
2023/12/12 06:36:31;;;;;;;9.63;2.85;;;;;;;11.16;81.66;100386.19;5083202;27;99303;-78
2023/12/12 06:38:59;;;;;;;8.95;3.00;;;;;;;11.16;82.65;100394.13;5081132;27;96795;-76
2023/12/12 06:41:25;;;;;;;8.95;2.88;;;;;;;11.18;82.85;100387.84;5073273;27;98303;-76
2023/12/12 06:43:52;;;;;;;10.13;3.60;;;;;;;11.14;83.31;100402.16;5067855;27;99410;-75
2023/12/12 06:46:18;;;;;;;8.50;3.05;;;;;;;11.07;83.59;100400.69;5071553;27;97523;-76
2023/12/12 06:48:45;;;;;;;6.78;3.17;;;;;;;11.19;83.77;100400.16;5073671;27;97330;-75
2023/12/12 06:51:11;;;;;;;11.15;4.55;;;;;;;11.29;83.10;100405.88;5075443;27;98502;-79
2023/12/12 06:53:38;;;;;;;9.18;3.17;;;;;;;11.13;83.77;100410.16;5086119;27;98776;-75
2023/12/12 06:56:07;;;;;;;8.75;3.60;;;;;;;11.37;83.23;100403.78;5083294;27;99084;-76
2023/12/12 06:58:33;;;;;;;9.43;3.90;;;;;;;11.42;82.76;100406.25;5084514;27;96806;-77
2023/12/12 07:01:00;;;;;;;4.30;2.65;;;;;;;11.42;82.49;100401.78;5076992;27;97064;-79
2023/12/12 07:03:26;;;;;;;6.93;3.42;;;;;;;10.94;84.65;100409.22;5080541;27;99348;-77
2023/12/12 07:05:53;;;;;;;7.97;3.60;;;;;;;10.96;85.60;100408.19;5087792;27;99253;-76
2023/12/12 07:08:19;;;;;;;5.75;4.03;;;;;;;10.86;86.16;100406.03;5079148;27;97227;-77
2023/12/12 07:10:46;;;;;;;11.30;6.70;;;;;;;10.94;85.34;100403.94;5081762;27;97349;-76
2023/12/12 07:13:14;;;;;;;11.77;4.30;;;;;;;11.04;84.87;100410.53;5081876;27;105197;-76
2023/12/12 07:15:41;;;;;;;12.48;4.53;;;;;;;11.15;84.25;100413.59;5078893;27;98311;-76
2023/12/12 07:18:10;;;;;;;10.15;3.97;;;;;;;11.21;83.62;100421.25;5085839;27;96882;-76
2023/12/12 07:20:38;;;;;;;11.68;3.75;;;;;;;11.29;83.45;100415.66;5083967;27;97021;-76
2023/12/12 07:23:05;;;;;;;11.60;5.07;;;;;;;11.29;83.35;100415.66;5083605;27;101657;-77
2023/12/12 07:25:33;;;;;;;11.18;4.03;;;;;;;11.19;83.17;100421.31;5089135;27;99457;-79
2023/12/12 07:27:59;;;;;;;8.63;3.95;;;;;;;11.21;83.75;100423.03;5080454;27;96976;-78
2023/12/12 07:30:28;;;;;;;11.15;5.43;;;;;;;11.45;82.65;100419.31;5086962;27;96883;-78
2023/12/12 07:32:54;;;;;;;11.23;4.22;;;;;;;11.61;81.82;100416.88;5081367;27;101619;-77
2023/12/12 07:35:21;;;;;;;9.98;4.20;;;;;;;11.47;82.16;100415.69;5078314;27;99106;-77
2023/12/12 07:37:47;;;;;;;9.80;4.50;;;;;;;11.47;81.79;100415.69;5072750;27;97816;-76
2023/12/12 07:40:14;;;;;;;12.38;4.80;;;;;;;11.51;81.97;100414.63;5070644;27;98306;-75
2023/12/12 07:42:40;;;;;;;11.27;4.43;;;;;;;11.59;80.89;100422.22;5073028;27;98612;-74
2023/12/12 07:45:09;;;;;;;10.63;5.25;;;;;;;11.67;80.70;100419.22;5070479;27;101122;-74
2023/12/12 07:47:36;;;;;;;12.20;5.03;;;;;;;11.80;80.69;100423.94;5080960;27;97218;-76
2023/12/12 07:50:05;;;;;;;9.20;4.88;;;;;;;11.68;80.42;100423.59;5077181;27;97964;-74
2023/12/12 07:52:32;;;;;;;12.15;5.25;;;;;;;11.68;80.51;100419.16;5071882;27;101630;-76
2023/12/12 07:54:58;;;;;;;13.73;5.18;;;;;;;11.89;79.51;100417.34;5076606;27;99921;-77
2023/12/12 07:57:25;;;;;;;13.30;4.90;;;;;;;11.66;79.82;100420.16;5079571;27;97735;-76
2023/12/12 07:59:51;;;;;;;14.02;5.07;;;;;;;11.69;79.86;100402.34;5084429;27;97261;-75
2023/12/12 08:02:18;;;;;;;20.55;5.65;;;;;;;11.69;80.01;100410.28;5074970;27;99760;-74
2023/12/12 08:04:45;;;;;;;12.73;5.20;;;;;;;11.76;80.07;100416.19;5079634;27;98993;-75
2023/12/12 08:07:12;;;;;;;15.95;4.90;;;;;;;11.70;80.39;100419.06;5082431;27;96766;-74
2023/12/12 08:09:39;;;;;;;18.77;6.25;;;;;;;11.45;80.01;100417.53;5067951;27;96970;-75
2023/12/12 08:12:06;;;;;;;15.25;5.82;;;;;;;11.54;80.17;100419.78;5073613;27;98980;-76
2023/12/12 08:14:32;;;;;;;18.17;5.45;;;;;;;11.54;80.70;100417.13;5075895;27;99130;-75
2023/12/12 08:16:58;;;;;;;17.60;5.72;;;;;;;11.59;80.83;100423.06;5077781;27;97882;-76
2023/12/12 08:19:25;;;;;;;21.33;5.55;;;;;;;11.40;81.47;100429.25;5078214;27;97362;-76
2023/12/12 08:21:52;;;;;;;14.25;4.80;;;;;;;11.38;81.64;100431.97;5084183;27;98884;-76
2023/12/12 08:24:19;;;;;;;17.92;5.38;;;;;;;11.45;81.32;100430.75;5070085;27;98855;-76
2023/12/12 08:26:47;;;;;;;13.85;5.15;;;;;;;11.53;81.16;100435.72;5078470;27;96762;-76
2023/12/12 08:29:15;;;;;;;12.90;5.15;;;;;;;11.68;80.69;100434.19;5077999;27;101234;-75
2023/12/12 08:31:41;;;;;;;11.77;5.18;;;;;;;11.52;80.88;100442.78;5081142;27;99014;-76
2023/12/12 08:34:08;;;;;;;19.80;6.55;;;;;;;11.55;80.66;100437.34;5077298;27;98227;-74
2023/12/12 08:36:35;;;;;;;14.18;4.63;;;;;;;11.59;79.99;100449.53;5075006;27;97838;-74
2023/12/12 08:39:03;;;;;;;14.15;5.63;;;;;;;11.61;80.24;100443.31;5081450;27;97710;-75
2023/12/12 08:41:31;;;;;;;10.05;4.25;;;;;;;11.70;79.85;100438.47;5073109;27;99502;-75
2023/12/12 08:43:57;;;;;;;8.88;3.58;;;;;;;11.64;80.20;100437.88;5075497;27;98762;-74
2023/12/12 08:46:26;;;;;;;10.52;3.72;;;;;;;11.49;80.06;100440.28;5075156;27;97088;-75
2023/12/12 08:48:53;;;;;;;15.18;4.55;;;;;;;11.50;79.45;100444.66;5078408;27;100382;-75
2023/12/12 08:51:20;;;;;;;14.75;4.15;;;;;;;11.30;81.42;100446.44;5082518;27;98902;-74
2023/12/12 08:53:46;;;;;;;13.90;4.10;;;;;;;11.16;81.14;100453.16;5077236;27;98673;-76
2023/12/12 08:56:14;;;;;;;12.38;3.78;;;;;;;11.15;81.47;100455.91;5085860;27;96786;-76
2023/12/12 08:58:41;;;;;;;12.93;3.45;;;;;;;11.19;81.27;100449.53;5079748;27;96936;-76
2023/12/12 09:01:07;;;;;;;11.10;3.70;;;;;;;11.44;80.13;100452.84;5080404;27;99083;-76
2023/12/12 09:03:33;;;;;;;9.75;3.13;;;;;;;11.41;80.00;100463.59;5071967;27;99253;-76
2023/12/12 09:06:00;;;;;;;12.90;3.67;;;;;;;11.59;79.48;100456.63;5074422;27;97148;-76
2023/12/12 09:08:27;;;;;;;10.65;3.97;;;;;;;11.72;78.87;100459.56;5073266;27;96924;-74
2023/12/12 09:10:53;;;;;;;13.20;3.33;;;;;;;11.62;79.10;100456.47;5076574;27;99205;-75
2023/12/12 09:13:22;;;;;;;8.80;3.22;;;;;;;11.45;79.49;100469.59;5076415;27;98861;-74
2023/12/12 09:15:48;;;;;;;12.88;3.30;;;;;;;11.66;78.52;100455.41;5076560;27;96880;-73
2023/12/12 09:18:16;;;;;;;11.18;3.47;;;;;;;11.53;79.01;100463.03;5081654;27;96850;-73
2023/12/12 09:20:42;;;;;;;22.73;9.60;;;;;;;11.58;79.35;100463.69;5076626;27;98818;-74
2023/12/12 09:23:09;;;;;;;10.27;3.35;;;;;;;11.41;79.11;100460.06;5079280;27;99407;-73
2023/12/12 09:25:35;;;;;;;12.95;3.22;;;;;;;11.41;79.79;100462.72;5083369;27;96879;-72
2023/12/12 09:28:02;;;;;;;10.07;3.00;;;;;;;11.54;78.31;100456.81;5083915;27;96822;-73
2023/12/12 09:30:29;;;;;;;13.18;3.65;;;;;;;11.22;78.93;100465.31;5073252;27;99083;-71
2023/12/12 09:32:56;;;;;;;8.52;2.95;;;;;;;11.45;79.32;100465.16;5080745;27;98783;-71
2023/12/12 09:35:22;;;;;;;10.73;3.45;;;;;;;11.51;79.29;100458.72;5078058;27;97249;-71
2023/12/12 09:37:49;;;;;;;11.05;3.00;;;;;;;11.24;79.20;100457.28;5075058;27;97234;-71
2023/12/12 09:40:15;;;;;;;10.35;3.00;;;;;;;11.42;79.64;100470.56;5073748;27;99098;-72
2023/12/12 09:42:41;;;;;;;15.00;3.10;;;;;;;11.26;80.24;100458.94;5081044;27;101304;-73
2023/12/12 09:45:13;;;;;;;7.78;2.40;;;;;;;10.92;81.83;100459.50;5076711;27;97172;-72
2023/12/12 09:47:42;;;;;;;17.05;7.95;;;;;;;11.01;81.95;100466.19;5083385;27;96818;-73
2023/12/12 09:50:10;;;;;;;9.93;2.50;;;;;;;11.06;81.28;100461.56;5081322;27;99205;-72
2023/12/12 09:52:37;;;;;;;17.02;2.95;;;;;;;11.08;81.53;100462.38;5076910;27;99080;-73
2023/12/12 09:55:04;;;;;;;12.75;3.25;;;;;;;11.01;81.94;100467.06;5072332;27;97422;-73
2023/12/12 09:57:32;;;;;;;18.05;3.47;;;;;;;11.00;81.09;100467.97;5075342;27;96708;-72
2023/12/12 09:59:59;;;;;;;8.18;3.00;;;;;;;11.10;81.05;100461.38;5079835;27;102898;-72
2023/12/12 10:02:31;;;;;;;9.88;2.50;;;;;;;11.02;81.94;100466.13;5073123;27;99091;-72
2023/12/12 10:05:00;;;;;;;9.30;2.90;;;;;;;11.25;80.15;100466.94;5079209;27;97309;-73
2023/12/12 10:07:27;;;;;;;8.10;3.70;;;;;;;11.34;79.90;100462.13;5076436;27;96888;-73
2023/12/12 10:09:54;;;;;;;6.70;2.42;;;;;;;11.73;78.23;100463.94;5076185;27;99132;-72
2023/12/12 10:12:20;;;;;;;8.05;2.63;;;;;;;11.50;78.37;100463.16;5077794;27;99073;-72
2023/12/12 10:14:47;;;;;;;8.48;2.70;;;;;;;11.63;78.40;100459.97;5082607;27;97067;-74
2023/12/12 10:17:14;;;;;;;14.60;3.00;;;;;;;11.92;77.13;100460.44;5082041;27;96881;-72
2023/12/12 10:19:41;;;;;;;10.07;2.90;;;;;;;11.75;77.61;100456.84;5075766;27;99456;-72
2023/12/12 10:22:10;;;;;;;7.93;3.05;;;;;;;11.85;77.71;100453.69;5085275;27;98130;-73
2023/12/12 10:24:37;;;;;;;9.30;2.40;;;;;;;11.63;78.60;100457.31;5075388;27;97463;-73
2023/12/12 10:27:05;;;;;;;9.60;2.78;;;;;;;11.85;78.57;100466.06;5076902;27;99892;-74
2023/12/12 10:29:31;;;;;;;6.18;2.90;;;;;;;11.89;78.26;100462.34;5080874;27;99036;-74
2023/12/12 10:31:58;;;;;;;5.65;2.03;;;;;;;11.85;78.19;100460.78;5083830;27;99240;-73
2023/12/12 10:34:27;;;;;;;4.88;1.95;;;;;;;11.72;78.62;100449.84;5079217;27;96886;-75
2023/12/12 10:36:53;;;;;;;3.88;2.25;;;;;;;11.88;79.04;100447.41;5076109;27;97042;-75
2023/12/12 10:39:22;;;;;;;7.63;2.40;;;;;;;11.61;79.73;100451.25;5075783;27;98983;-76
2023/12/12 10:41:52;;;;;;;10.27;4.32;;;;;;;11.61;79.41;100449.47;5088842;27;99865;-77
2023/12/12 10:44:21;;;;;;;12.90;5.28;;;;;;;11.91;78.46;100436.66;5076676;27;98495;-75
2023/12/12 10:46:52;;;;;;;8.13;2.92;;;;;;;12.03;77.86;100445.84;5078259;27;98097;-76
2023/12/12 10:49:21;;;;;;;7.93;2.35;;;;;;;12.20;76.58;100435.34;5081779;27;99210;-75
2023/12/12 10:51:48;;;;;;;4.57;2.70;;;;;;;12.24;76.30;100432.47;5081957;27;98757;-74
2023/12/12 10:54:16;;;;;;;7.35;2.65;;;;;;;12.15;76.64;100424.94;5074704;27;97870;-75
2023/12/12 10:56:46;;;;;;;11.32;2.53;;;;;;;12.38;75.99;100427.38;5084353;27;97735;-74
2023/12/12 10:59:16;;;;;;;9.80;3.53;;;;;;;12.30;75.71;100426.00;5075573;27;98906;-74
2023/12/12 11:01:46;;;;;;;10.30;3.45;;;;;;;12.06;75.48;100429.81;5079960;27;100235;-75
2023/12/12 11:04:14;;;;;;;11.35;2.90;;;;;;;12.22;75.12;100426.38;5081648;27;97197;-73
2023/12/12 11:06:42;;;;;;;8.35;2.92;;;;;;;11.94;75.54;100421.53;5077544;27;97942;-74
2023/12/12 11:09:09;;;;;;;10.00;3.63;;;;;;;11.96;76.13;100416.13;5077472;27;98063;-75
2023/12/12 11:11:37;;;;;;;9.98;3.35;;;;;;;12.11;75.84;100425.16;5078567;27;99216;-74
2023/12/12 11:14:07;;;;;;;16.00;3.63;;;;;;;12.23;74.96;100421.94;5084541;27;96920;-74
2023/12/12 11:16:33;;;;;;;9.38;2.78;;;;;;;12.28;75.16;100412.81;5076614;27;97445;-74
2023/12/12 11:19:02;;;;;;;11.73;3.72;;;;;;;12.36;75.30;100410.66;5079921;27;100518;-74